Depesze METAR z lotnisk oddalonych od Rybnika do 200 kilometrów

LKMT - Ostrava/Mosnov, Czech Republic
Distance from station: SSW 55km
Updated: Sun, 25/02/2018 10:46 CET
Light snow, Low drifting, Snow, Overcast
Light snow, Low drifting, Snow, Overcast
 Wind from NE
Wind: NE 26 km/h
Temperature: -11°C
Wind Chill: -21°C
Dew Point: -15°C
Humidity: 73%
Barometer: 1028 hPa
Summary: Light snow, Low drifting, Snow
Clouds: Overcast
Visibility: 4 km
Cloud details: Few Clouds 335 m
Partly Cloudy 518 m
Overcast 610 m
2018/02/25 09:46 LKMT 250946Z 04014KT 4000 -SN DRSN FEW011 SCT017 OVC020 M11/M15 Q1028 R04/490494 RMK REG QNH 1021
EPKT - Katowice/Pyrzowi, Poland
Distance from station: NE 58km
Updated: Sun, 25/02/2018 10:30 CET
Light snow, Mostly cloudy
Light snow, Mostly cloudy
 Wind from NNE
Wind: NNE 15 km/h
Temperature: -12°C
Wind Chill: -19°C
Dew Point: -17°C
Humidity: 67%
Barometer: 1027 hPa
Summary: Light Snow
Clouds: Mostly Cloudy
Visibility: 10 km
Cloud details: Few Clouds 366 m
Mostly Cloudy 671 m
2018/02/25 09:30 EPKT 250930Z 02008KT 350V070 9999 -SN FEW012 BKN022 M12/M17 Q1027
 
EPKK - Krakow/Balice, Poland
Distance from station: E 91km
Updated: Sun, 25/02/2018 10:30 CET
Mostly Cloudy
Mostly Cloudy
 Wind from N
Wind: N 17 km/h
Temperature: -11°C
Wind Chill: -18°C
Dew Point: -16°C
Humidity: 67%
Barometer: 1028 hPa
Clouds: Mostly Cloudy
Visibility: 10 km
Cloud details: Mostly Cloudy 610 m
2018/02/25 09:30 EPKK 250930Z 36009KT 340V040 9999 BKN020 M11/M16 Q1028 R25/45//94
LZZI - Zilina, Slovakia
Distance from station: S 95km
Updated: Sun, 25/02/2018 10:30 CET
Few Clouds
Few Clouds
 Wind from NE
Wind: NE 15 km/h
Temperature: -9°C
Wind Chill: -15°C
Dew Point: -16°C
Humidity: 57%
Barometer: 1025 hPa
Clouds: Few Clouds
Visibility: 10 km
Cloud details: Few Clouds 792 m
2018/02/25 09:30 LZZI 250930Z 04008KT 350V090 9999 FEW026 M09/M16 Q1025
 
LKKU - Kunovice, Czech Republic
Distance from station: SW 139km
Updated: Fri, 23/02/2018 16:00 CET
NOT Current
Mist, Few clouds
Mist, Few clouds
 Wind from N
Wind: N 31 km/h
Temperature: -2°C
Wind Chill: -9°C
Dew Point: -5°C
Humidity: 80%
Barometer: 1018 hPa
Summary: Mist
Clouds: Few Clouds
Visibility: 5 km
Cloud details: Few Clouds 762 m
2018/02/23 15:00 LKKU 231500Z 36017KT 5000 BR FEW025 M02/M05 Q1018
EPWR - Wroclaw/Strachow, Poland
Distance from station: NW 163km
Updated: Sun, 25/02/2018 10:30 CET
Few Clouds
Few Clouds
 Wind from N
Wind: N 17 km/h
Temperature: -9°C
Wind Chill: -16°C
Dew Point: -15°C
Humidity: 62%
Barometer: 1031 hPa
Clouds: Few Clouds
Visibility: 10 km
Cloud details: Few Clouds 671 m
2018/02/25 09:30 EPWR 250930Z 01009KT 330V040 9999 FEW022 M09/M15 Q1031
 
LZSL - Sliac, Slovakia
Distance from station: SSE 168km
Updated: Sun, 25/02/2018 10:30 CET
Clear
Clear
 Wind from SSW
Wind: SSW 6 km/h
Temperature: -7°C
Dew Point: -16°C
Humidity: 49%
Barometer: 1022 hPa
Summary: Clear
Visibility: greater than 10 km
2018/02/25 09:30 LZSL 250930Z 21003KT 140V260 CAVOK M07/M16 Q1022
LZTT - Poprad/Tatry, Slovakia
Distance from station: SE 168km
Updated: Sun, 25/02/2018 10:30 CET
Few Clouds
Few Clouds
 Wind from varies
Wind: varies 4 km/h
Temperature: -13°C
Dew Point: -16°C
Humidity: 78%
Barometer: 1020 hPa
Clouds: Few Clouds
Visibility: 10 km
Cloud details: Few Clouds 610 m
2018/02/25 09:30 LZTT 250930Z VRB02KT 9999 FEW020 M13/M16 Q1020 NOSIG
 
LKTB - Brno/Turany, Czech Republic
Distance from station: SW 170km
Updated: Sun, 25/02/2018 10:30 CET
Light snow, Partly cloudy
Light snow, Partly cloudy
 Wind from NE
Wind: NE 15 km/h
Temperature: -9°C
Wind Chill: -15°C
Dew Point: -15°C
Humidity: 62%
Barometer: 1026 hPa
Summary: Light Snow
Clouds: Partly Cloudy
Visibility: 10 km
Cloud details: Partly Cloudy 792 m
2018/02/25 09:30 LKTB 250930Z 04008KT 010V070 9999 -SN SCT026 M09/M15 Q1026 NOSIG
LZPP - Piestany, Slovakia
Distance from station: SSW 171km
Updated: Sun, 25/02/2018 10:30 CET
Clear
Clear
 Wind from N
Wind: N 35 km/h
Temperature: -7°C
Wind Chill: -17°C
Dew Point: -16°C
Humidity: 49%
Barometer: 1025 hPa
Summary: Clear
Visibility: greater than 10 km
2018/02/25 09:30 LZPP 250930Z 36019KT CAVOK M07/M16 Q1025
 
EPLL - Lodz/Lublinek, Poland
Distance from station: NNE 191km
Updated: Sun, 25/02/2018 10:30 CET
Partly Cloudy
Partly Cloudy
 Wind from NNE
Wind: NNE 15 km/h
Temperature: -11°C
Wind Chill: -18°C
Dew Point: -15°C
Humidity: 73%
Barometer: 1029 hPa
Clouds: Partly Cloudy
Visibility: 10 km
Cloud details: Few Clouds 579 m
Partly Cloudy 671 m
2018/02/25 09:30 EPLL 250930Z 02008KT 340V060 9999 FEW019 SCT022 M11/M15 Q1029
LKPD - Pardubice, Czech Republic
Distance from station: W 200km
Updated: Sun, 25/02/2018 10:00 CET
Few Clouds
Few Clouds
 Wind from NNE
Wind: NNE 11 km/h
Temperature: -8°C
Wind Chill: -13°C
Dew Point: -16°C
Humidity: 53%
Barometer: 1027 hPa
Clouds: Few Clouds
Visibility: 10 km
Cloud details: Few Clouds 823 m
2018/02/25 09:00 LKPD 250900Z 03006KT 350V060 9999 FEW027 M08/M16 Q1027 NOSIG

Metar display script from Saratoga-Weather.org